sensor_id;sensor_type;location;lat;lon;timestamp;P1;durP1;ratioP1;P2;durP2;ratioP2
46391;SDS011;32098;49.448;7.904;2022-10-31T00:01:12;11.90;;;5.10;;
46391;SDS011;32098;49.448;7.904;2022-10-31T00:03:39;8.60;;;4.97;;
46391;SDS011;32098;49.448;7.904;2022-10-31T00:06:06;8.40;;;5.20;;
46391;SDS011;32098;49.448;7.904;2022-10-31T00:08:32;9.50;;;5.00;;
46391;SDS011;32098;49.448;7.904;2022-10-31T00:10:59;11.20;;;5.10;;
46391;SDS011;32098;49.448;7.904;2022-10-31T00:13:26;12.30;;;5.27;;
46391;SDS011;32098;49.448;7.904;2022-10-31T00:15:52;8.90;;;4.70;;
46391;SDS011;32098;49.448;7.904;2022-10-31T00:18:19;9.93;;;5.10;;
46391;SDS011;32098;49.448;7.904;2022-10-31T00:20:45;12.67;;;5.37;;
46391;SDS011;32098;49.448;7.904;2022-10-31T00:23:12;13.70;;;5.20;;
46391;SDS011;32098;49.448;7.904;2022-10-31T00:25:39;10.83;;;4.80;;
46391;SDS011;32098;49.448;7.904;2022-10-31T00:28:06;7.87;;;4.70;;
46391;SDS011;32098;49.448;7.904;2022-10-31T00:30:35;11.50;;;5.53;;
46391;SDS011;32098;49.448;7.904;2022-10-31T00:33:03;15.40;;;5.57;;
46391;SDS011;32098;49.448;7.904;2022-10-31T00:35:30;9.27;;;4.47;;
46391;SDS011;32098;49.448;7.904;2022-10-31T00:37:57;8.93;;;4.63;;
46391;SDS011;32098;49.448;7.904;2022-10-31T00:40:24;8.50;;;4.57;;
46391;SDS011;32098;49.448;7.904;2022-10-31T00:42:51;9.17;;;4.77;;
46391;SDS011;32098;49.448;7.904;2022-10-31T00:45:17;9.33;;;4.57;;
46391;SDS011;32098;49.448;7.904;2022-10-31T00:47:44;10.60;;;5.10;;
46391;SDS011;32098;49.448;7.904;2022-10-31T00:50:10;9.07;;;4.30;;
46391;SDS011;32098;49.448;7.904;2022-10-31T00:52:37;11.17;;;4.40;;
46391;SDS011;32098;49.448;7.904;2022-10-31T00:55:03;9.07;;;4.63;;
46391;SDS011;32098;49.448;7.904;2022-10-31T00:57:30;8.47;;;4.50;;
46391;SDS011;32098;49.448;7.904;2022-10-31T00:59:57;6.70;;;4.00;;
46391;SDS011;32098;49.448;7.904;2022-10-31T01:02:23;9.77;;;4.10;;
46391;SDS011;32098;49.448;7.904;2022-10-31T01:04:50;8.60;;;4.90;;
46391;SDS011;32098;49.448;7.904;2022-10-31T01:07:16;6.97;;;4.50;;
46391;SDS011;32098;49.448;7.904;2022-10-31T01:09:43;7.97;;;4.60;;
46391;SDS011;32098;49.448;7.904;2022-10-31T01:12:10;11.37;;;5.33;;
46391;SDS011;32098;49.448;7.904;2022-10-31T01:14:38;7.97;;;4.37;;
46391;SDS011;32098;49.448;7.904;2022-10-31T01:17:08;11.90;;;4.70;;
46391;SDS011;32098;49.448;7.904;2022-10-31T01:19:34;12.33;;;4.67;;
46391;SDS011;32098;49.448;7.904;2022-10-31T01:22:01;8.90;;;4.50;;
46391;SDS011;32098;49.448;7.904;2022-10-31T01:24:28;7.03;;;4.70;;
46391;SDS011;32098;49.448;7.904;2022-10-31T01:26:55;12.53;;;4.63;;
46391;SDS011;32098;49.448;7.904;2022-10-31T01:29:21;11.47;;;5.57;;
46391;SDS011;32098;49.448;7.904;2022-10-31T01:31:48;6.07;;;3.83;;
46391;SDS011;32098;49.448;7.904;2022-10-31T01:34:15;9.20;;;4.70;;
46391;SDS011;32098;49.448;7.904;2022-10-31T01:36:44;8.20;;;4.37;;
46391;SDS011;32098;49.448;7.904;2022-10-31T01:39:14;11.37;;;4.30;;
46391;SDS011;32098;49.448;7.904;2022-10-31T01:41:42;7.13;;;4.10;;
46391;SDS011;32098;49.448;7.904;2022-10-31T01:46:50;10.60;;;4.30;;
46391;SDS011;32098;49.448;7.904;2022-10-31T01:49:48;10.73;;;4.07;;
46391;SDS011;32098;49.448;7.904;2022-10-31T01:52:22;8.13;;;4.03;;
46391;SDS011;32098;49.448;7.904;2022-10-31T01:55:15;6.63;;;4.00;;
46391;SDS011;32098;49.448;7.904;2022-10-31T01:57:46;7.37;;;4.43;;
46391;SDS011;32098;49.448;7.904;2022-10-31T02:00:16;8.73;;;4.30;;
46391;SDS011;32098;49.448;7.904;2022-10-31T02:02:44;8.83;;;4.20;;
46391;SDS011;32098;49.448;7.904;2022-10-31T02:05:14;8.80;;;3.77;;
46391;SDS011;32098;49.448;7.904;2022-10-31T02:07:55;11.77;;;4.23;;
46391;SDS011;32098;49.448;7.904;2022-10-31T02:10:27;11.67;;;4.10;;
46391;SDS011;32098;49.448;7.904;2022-10-31T02:12:56;7.97;;;4.07;;
46391;SDS011;32098;49.448;7.904;2022-10-31T02:15:26;6.43;;;4.20;;
46391;SDS011;32098;49.448;7.904;2022-10-31T02:17:54;7.23;;;4.13;;
46391;SDS011;32098;49.448;7.904;2022-10-31T02:20:21;9.37;;;4.77;;
46391;SDS011;32098;49.448;7.904;2022-10-31T02:25:41;12.00;;;4.13;;
46391;SDS011;32098;49.448;7.904;2022-10-31T02:33:55;8.63;;;4.93;;
46391;SDS011;32098;49.448;7.904;2022-10-31T02:36:28;7.37;;;4.30;;
46391;SDS011;32098;49.448;7.904;2022-10-31T02:41:52;9.63;;;4.53;;
46391;SDS011;32098;49.448;7.904;2022-10-31T02:47:06;11.47;;;4.00;;
46391;SDS011;32098;49.448;7.904;2022-10-31T02:49:40;8.87;;;4.00;;
46391;SDS011;32098;49.448;7.904;2022-10-31T02:52:20;13.10;;;4.50;;
46391;SDS011;32098;49.448;7.904;2022-10-31T02:54:50;7.53;;;3.97;;
46391;SDS011;32098;49.448;7.904;2022-10-31T02:59:53;7.47;;;3.70;;
46391;SDS011;32098;49.448;7.904;2022-10-31T03:02:37;6.03;;;3.93;;
46391;SDS011;32098;49.448;7.904;2022-10-31T03:05:29;13.20;;;4.10;;
46391;SDS011;32098;49.448;7.904;2022-10-31T03:10:52;9.73;;;4.20;;
46391;SDS011;32098;49.448;7.904;2022-10-31T03:19:00;8.93;;;4.20;;
46391;SDS011;32098;49.448;7.904;2022-10-31T03:24:11;9.50;;;4.27;;
46391;SDS011;32098;49.448;7.904;2022-10-31T03:26:41;7.17;;;4.30;;
46391;SDS011;32098;49.448;7.904;2022-10-31T03:29:13;12.37;;;4.63;;
46391;SDS011;32098;49.448;7.904;2022-10-31T03:31:46;10.07;;;4.00;;
46391;SDS011;32098;49.448;7.904;2022-10-31T03:34:20;10.13;;;4.23;;
46391;SDS011;32098;49.448;7.904;2022-10-31T03:36:48;5.93;;;3.97;;
46391;SDS011;32098;49.448;7.904;2022-10-31T03:39:18;7.37;;;3.53;;
46391;SDS011;32098;49.448;7.904;2022-10-31T03:41:58;10.27;;;3.90;;
46391;SDS011;32098;49.448;7.904;2022-10-31T03:44:28;8.50;;;4.43;;
46391;SDS011;32098;49.448;7.904;2022-10-31T03:46:59;10.07;;;3.73;;
46391;SDS011;32098;49.448;7.904;2022-10-31T03:49:27;6.90;;;3.83;;
46391;SDS011;32098;49.448;7.904;2022-10-31T03:52:02;10.13;;;4.03;;
46391;SDS011;32098;49.448;7.904;2022-10-31T03:54:42;8.57;;;4.00;;
46391;SDS011;32098;49.448;7.904;2022-10-31T03:57:14;8.70;;;3.83;;
46391;SDS011;32098;49.448;7.904;2022-10-31T03:59:44;7.00;;;3.90;;
46391;SDS011;32098;49.448;7.904;2022-10-31T04:02:18;6.97;;;4.23;;
46391;SDS011;32098;49.448;7.904;2022-10-31T04:04:48;7.87;;;3.80;;
46391;SDS011;32098;49.448;7.904;2022-10-31T04:07:17;5.80;;;3.60;;
46391;SDS011;32098;49.448;7.904;2022-10-31T04:09:48;7.63;;;3.90;;
46391;SDS011;32098;49.448;7.904;2022-10-31T04:12:19;9.37;;;4.13;;
46391;SDS011;32098;49.448;7.904;2022-10-31T04:15:08;10.13;;;4.40;;
46391;SDS011;32098;49.448;7.904;2022-10-31T04:17:39;9.93;;;4.57;;
46391;SDS011;32098;49.448;7.904;2022-10-31T04:20:09;9.10;;;4.00;;
46391;SDS011;32098;49.448;7.904;2022-10-31T04:22:36;9.70;;;4.33;;
46391;SDS011;32098;49.448;7.904;2022-10-31T04:25:02;6.57;;;4.60;;
46391;SDS011;32098;49.448;7.904;2022-10-31T04:27:29;12.80;;;5.30;;
46391;SDS011;32098;49.448;7.904;2022-10-31T04:29:56;6.67;;;4.40;;
46391;SDS011;32098;49.448;7.904;2022-10-31T04:32:23;8.00;;;5.10;;
46391;SDS011;32098;49.448;7.904;2022-10-31T04:34:51;9.60;;;5.87;;
46391;SDS011;32098;49.448;7.904;2022-10-31T04:37:18;8.57;;;5.80;;
46391;SDS011;32098;49.448;7.904;2022-10-31T04:39:46;10.97;;;5.43;;
46391;SDS011;32098;49.448;7.904;2022-10-31T04:42:44;8.77;;;6.67;;
46391;SDS011;32098;49.448;7.904;2022-10-31T04:45:11;11.03;;;5.10;;
46391;SDS011;32098;49.448;7.904;2022-10-31T04:47:43;8.50;;;5.90;;
46391;SDS011;32098;49.448;7.904;2022-10-31T04:50:10;10.20;;;6.00;;
46391;SDS011;32098;49.448;7.904;2022-10-31T04:52:40;10.50;;;6.73;;
46391;SDS011;32098;49.448;7.904;2022-10-31T04:55:10;9.90;;;5.30;;
46391;SDS011;32098;49.448;7.904;2022-10-31T04:57:56;8.97;;;4.77;;
46391;SDS011;32098;49.448;7.904;2022-10-31T05:00:25;10.70;;;5.30;;
46391;SDS011;32098;49.448;7.904;2022-10-31T05:02:53;10.33;;;4.30;;
46391;SDS011;32098;49.448;7.904;2022-10-31T05:05:26;9.63;;;3.77;;
46391;SDS011;32098;49.448;7.904;2022-10-31T05:07:55;8.77;;;4.47;;
46391;SDS011;32098;49.448;7.904;2022-10-31T05:10:24;8.20;;;4.60;;
46391;SDS011;32098;49.448;7.904;2022-10-31T05:12:55;11.80;;;4.87;;
46391;SDS011;32098;49.448;7.904;2022-10-31T05:15:41;6.70;;;4.47;;
46391;SDS011;32098;49.448;7.904;2022-10-31T05:18:34;11.00;;;4.43;;
46391;SDS011;32098;49.448;7.904;2022-10-31T05:21:03;7.03;;;4.10;;
46391;SDS011;32098;49.448;7.904;2022-10-31T05:23:34;7.07;;;4.23;;
46391;SDS011;32098;49.448;7.904;2022-10-31T05:26:02;7.37;;;4.27;;
46391;SDS011;32098;49.448;7.904;2022-10-31T05:28:29;8.53;;;4.13;;
46391;SDS011;32098;49.448;7.904;2022-10-31T05:30:56;11.53;;;4.70;;
46391;SDS011;32098;49.448;7.904;2022-10-31T05:33:23;8.60;;;4.50;;
46391;SDS011;32098;49.448;7.904;2022-10-31T05:36:08;8.27;;;4.67;;
46391;SDS011;32098;49.448;7.904;2022-10-31T05:38:40;9.00;;;4.10;;
46391;SDS011;32098;49.448;7.904;2022-10-31T05:41:11;8.63;;;4.23;;
46391;SDS011;32098;49.448;7.904;2022-10-31T05:43:42;10.73;;;4.83;;
46391;SDS011;32098;49.448;7.904;2022-10-31T05:46:09;9.63;;;4.53;;
46391;SDS011;32098;49.448;7.904;2022-10-31T05:49:01;9.63;;;4.20;;
46391;SDS011;32098;49.448;7.904;2022-10-31T05:52:03;6.37;;;3.87;;
46391;SDS011;32098;49.448;7.904;2022-10-31T05:54:39;8.07;;;4.23;;
46391;SDS011;32098;49.448;7.904;2022-10-31T05:57:05;6.37;;;4.10;;
46391;SDS011;32098;49.448;7.904;2022-10-31T05:59:32;9.53;;;5.03;;
46391;SDS011;32098;49.448;7.904;2022-10-31T06:01:59;8.47;;;4.70;;
46391;SDS011;32098;49.448;7.904;2022-10-31T06:04:45;11.30;;;4.87;;
46391;SDS011;32098;49.448;7.904;2022-10-31T06:07:12;9.13;;;4.43;;
46391;SDS011;32098;49.448;7.904;2022-10-31T06:09:39;8.77;;;4.60;;
46391;SDS011;32098;49.448;7.904;2022-10-31T06:12:07;10.73;;;4.37;;
46391;SDS011;32098;49.448;7.904;2022-10-31T06:15:06;6.77;;;3.80;;
46391;SDS011;32098;49.448;7.904;2022-10-31T06:17:34;8.50;;;4.47;;
46391;SDS011;32098;49.448;7.904;2022-10-31T06:20:04;5.47;;;4.23;;
46391;SDS011;32098;49.448;7.904;2022-10-31T06:22:36;9.03;;;4.07;;
46391;SDS011;32098;49.448;7.904;2022-10-31T06:25:04;10.07;;;4.37;;
46391;SDS011;32098;49.448;7.904;2022-10-31T06:27:33;9.30;;;4.67;;
46391;SDS011;32098;49.448;7.904;2022-10-31T06:30:07;12.67;;;5.63;;
46391;SDS011;32098;49.448;7.904;2022-10-31T06:32:35;9.97;;;4.40;;
46391;SDS011;32098;49.448;7.904;2022-10-31T06:35:02;12.30;;;4.90;;
46391;SDS011;32098;49.448;7.904;2022-10-31T06:37:31;11.10;;;5.30;;
46391;SDS011;32098;49.448;7.904;2022-10-31T06:40:05;11.10;;;5.20;;
46391;SDS011;32098;49.448;7.904;2022-10-31T06:42:47;8.47;;;4.50;;
46391;SDS011;32098;49.448;7.904;2022-10-31T06:45:13;10.47;;;5.43;;
46391;SDS011;32098;49.448;7.904;2022-10-31T06:48:16;9.83;;;4.93;;
46391;SDS011;32098;49.448;7.904;2022-10-31T06:51:02;8.20;;;4.43;;
46391;SDS011;32098;49.448;7.904;2022-10-31T06:53:29;8.77;;;4.57;;
46391;SDS011;32098;49.448;7.904;2022-10-31T06:55:59;9.37;;;4.33;;
46391;SDS011;32098;49.448;7.904;2022-10-31T06:58:25;5.93;;;4.13;;
46391;SDS011;32098;49.448;7.904;2022-10-31T07:00:58;6.57;;;4.73;;
46391;SDS011;32098;49.448;7.904;2022-10-31T07:03:26;11.03;;;5.13;;
46391;SDS011;32098;49.448;7.904;2022-10-31T07:05:54;10.50;;;5.73;;
46391;SDS011;32098;49.448;7.904;2022-10-31T07:08:22;11.70;;;5.80;;
46391;SDS011;32098;49.448;7.904;2022-10-31T07:10:51;8.87;;;5.73;;
46391;SDS011;32098;49.448;7.904;2022-10-31T07:13:20;9.00;;;5.60;;
46391;SDS011;32098;49.448;7.904;2022-10-31T07:16:02;9.70;;;4.80;;
46391;SDS011;32098;49.448;7.904;2022-10-31T07:18:33;11.00;;;5.10;;
46391;SDS011;32098;49.448;7.904;2022-10-31T07:21:00;10.10;;;5.00;;
46391;SDS011;32098;49.448;7.904;2022-10-31T07:23:27;9.57;;;4.50;;
46391;SDS011;32098;49.448;7.904;2022-10-31T07:26:12;12.37;;;5.37;;
46391;SDS011;32098;49.448;7.904;2022-10-31T07:28:43;11.87;;;4.97;;
46391;SDS011;32098;49.448;7.904;2022-10-31T07:31:12;8.47;;;4.97;;
46391;SDS011;32098;49.448;7.904;2022-10-31T07:33:39;10.33;;;5.20;;
46391;SDS011;32098;49.448;7.904;2022-10-31T07:36:26;9.97;;;5.03;;
46391;SDS011;32098;49.448;7.904;2022-10-31T07:38:56;9.37;;;4.87;;
46391;SDS011;32098;49.448;7.904;2022-10-31T07:41:24;9.13;;;4.37;;
46391;SDS011;32098;49.448;7.904;2022-10-31T07:43:51;10.50;;;4.80;;
46391;SDS011;32098;49.448;7.904;2022-10-31T07:46:41;10.93;;;5.20;;
46391;SDS011;32098;49.448;7.904;2022-10-31T07:49:33;10.40;;;5.47;;
46391;SDS011;32098;49.448;7.904;2022-10-31T07:52:19;8.57;;;4.53;;
46391;SDS011;32098;49.448;7.904;2022-10-31T07:55:05;9.80;;;4.93;;
46391;SDS011;32098;49.448;7.904;2022-10-31T07:57:34;8.93;;;4.97;;
46391;SDS011;32098;49.448;7.904;2022-10-31T08:00:03;11.07;;;5.17;;
46391;SDS011;32098;49.448;7.904;2022-10-31T08:02:40;11.33;;;5.37;;
46391;SDS011;32098;49.448;7.904;2022-10-31T08:05:29;9.27;;;5.10;;
46391;SDS011;32098;49.448;7.904;2022-10-31T08:08:16;8.93;;;5.43;;
46391;SDS011;32098;49.448;7.904;2022-10-31T08:10:46;8.30;;;4.67;;
46391;SDS011;32098;49.448;7.904;2022-10-31T08:13:13;9.65;;;5.18;;
46391;SDS011;32098;49.448;7.904;2022-10-31T08:15:44;9.80;;;5.03;;
46391;SDS011;32098;49.448;7.904;2022-10-31T08:18:17;8.83;;;4.93;;
46391;SDS011;32098;49.448;7.904;2022-10-31T08:20:44;7.65;;;5.00;;
46391;SDS011;32098;49.448;7.904;2022-10-31T08:23:11;9.57;;;4.80;;
46391;SDS011;32098;49.448;7.904;2022-10-31T08:25:41;11.03;;;4.47;;
46391;SDS011;32098;49.448;7.904;2022-10-31T08:28:08;12.03;;;5.00;;
46391;SDS011;32098;49.448;7.904;2022-10-31T08:30:40;9.13;;;4.83;;
46391;SDS011;32098;49.448;7.904;2022-10-31T08:33:45;8.50;;;5.03;;
46391;SDS011;32098;49.448;7.904;2022-10-31T08:36:18;9.03;;;5.50;;
46391;SDS011;32098;49.448;7.904;2022-10-31T08:38:51;13.40;;;7.10;;
46391;SDS011;32098;49.448;7.904;2022-10-31T08:41:23;9.07;;;6.60;;
46391;SDS011;32098;49.448;7.904;2022-10-31T08:43:49;10.90;;;6.77;;
46391;SDS011;32098;49.448;7.904;2022-10-31T08:46:16;12.73;;;6.87;;
46391;SDS011;32098;49.448;7.904;2022-10-31T08:48:43;12.73;;;6.87;;
46391;SDS011;32098;49.448;7.904;2022-10-31T08:51:10;11.70;;;6.27;;
46391;SDS011;32098;49.448;7.904;2022-10-31T08:53:37;11.13;;;6.27;;
46391;SDS011;32098;49.448;7.904;2022-10-31T08:56:29;9.67;;;6.07;;
46391;SDS011;32098;49.448;7.904;2022-10-31T08:58:56;10.40;;;6.40;;
46391;SDS011;32098;49.448;7.904;2022-10-31T09:01:32;14.13;;;7.30;;
46391;SDS011;32098;49.448;7.904;2022-10-31T09:03:58;15.20;;;8.20;;
46391;SDS011;32098;49.448;7.904;2022-10-31T09:06:25;14.40;;;9.10;;
46391;SDS011;32098;49.448;7.904;2022-10-31T09:08:52;14.60;;;8.97;;
46391;SDS011;32098;49.448;7.904;2022-10-31T09:11:23;13.75;;;7.97;;
46391;SDS011;32098;49.448;7.904;2022-10-31T09:14:08;13.60;;;8.05;;
46391;SDS011;32098;49.448;7.904;2022-10-31T09:16:37;11.97;;;7.30;;
46391;SDS011;32098;49.448;7.904;2022-10-31T09:19:07;15.30;;;7.93;;
46391;SDS011;32098;49.448;7.904;2022-10-31T09:21:37;12.30;;;7.87;;
46391;SDS011;32098;49.448;7.904;2022-10-31T09:24:03;14.13;;;7.87;;
46391;SDS011;32098;49.448;7.904;2022-10-31T09:26:30;13.47;;;7.37;;
46391;SDS011;32098;49.448;7.904;2022-10-31T09:29:23;12.13;;;6.25;;
46391;SDS011;32098;49.448;7.904;2022-10-31T09:31:56;10.95;;;6.82;;
46391;SDS011;32098;49.448;7.904;2022-10-31T09:34:27;10.10;;;6.13;;
46391;SDS011;32098;49.448;7.904;2022-10-31T09:37:14;13.93;;;5.80;;
46391;SDS011;32098;49.448;7.904;2022-10-31T09:39:41;9.18;;;5.28;;
46391;SDS011;32098;49.448;7.904;2022-10-31T09:51:17;8.23;;;4.68;;
46391;SDS011;32098;49.448;7.904;2022-10-31T09:53:54;10.38;;;5.00;;
46391;SDS011;32098;49.448;7.904;2022-10-31T09:56:23;7.25;;;4.40;;
46391;SDS011;32098;49.448;7.904;2022-10-31T09:58:55;11.50;;;4.53;;
46391;SDS011;32098;49.448;7.904;2022-10-31T10:07:12;8.88;;;3.70;;
46391;SDS011;32098;49.448;7.904;2022-10-31T10:10:17;9.68;;;4.43;;
46391;SDS011;32098;49.448;7.904;2022-10-31T10:13:29;6.95;;;4.32;;
46391;SDS011;32098;49.448;7.904;2022-10-31T10:16:29;11.82;;;4.60;;
46391;SDS011;32098;49.448;7.904;2022-10-31T10:22:04;6.47;;;3.88;;
46391;SDS011;32098;49.448;7.904;2022-10-31T10:27:20;7.60;;;3.90;;
46391;SDS011;32098;49.448;7.904;2022-10-31T10:29:58;5.70;;;3.60;;
46391;SDS011;32098;49.448;7.904;2022-10-31T10:32:31;8.63;;;3.67;;
46391;SDS011;32098;49.448;7.904;2022-10-31T10:37:49;11.82;;;3.80;;
46391;SDS011;32098;49.448;7.904;2022-10-31T10:40:23;9.40;;;3.28;;
46391;SDS011;32098;49.448;7.904;2022-10-31T10:45:49;6.90;;;3.40;;
46391;SDS011;32098;49.448;7.904;2022-10-31T10:57:57;5.68;;;3.10;;
46391;SDS011;32098;49.448;7.904;2022-10-31T11:00:44;5.45;;;3.08;;
46391;SDS011;32098;49.448;7.904;2022-10-31T11:03:16;4.60;;;3.10;;
46391;SDS011;32098;49.448;7.904;2022-10-31T11:05:48;6.55;;;3.38;;
46391;SDS011;32098;49.448;7.904;2022-10-31T11:08:27;9.25;;;3.58;;
46391;SDS011;32098;49.448;7.904;2022-10-31T11:11:00;5.53;;;3.40;;
46391;SDS011;32098;49.448;7.904;2022-10-31T11:13:28;6.25;;;3.45;;
46391;SDS011;32098;49.448;7.904;2022-10-31T11:16:00;8.25;;;3.22;;
46391;SDS011;32098;49.448;7.904;2022-10-31T11:18:30;6.65;;;3.05;;
46391;SDS011;32098;49.448;7.904;2022-10-31T11:21:00;8.73;;;2.95;;
46391;SDS011;32098;49.448;7.904;2022-10-31T11:23:29;6.90;;;2.80;;
46391;SDS011;32098;49.448;7.904;2022-10-31T11:26:00;7.15;;;3.13;;
46391;SDS011;32098;49.448;7.904;2022-10-31T11:28:29;6.53;;;3.38;;
46391;SDS011;32098;49.448;7.904;2022-10-31T11:30:58;7.93;;;3.25;;
46391;SDS011;32098;49.448;7.904;2022-10-31T11:33:36;8.40;;;3.03;;
46391;SDS011;32098;49.448;7.904;2022-10-31T11:36:16;7.85;;;3.05;;
46391;SDS011;32098;49.448;7.904;2022-10-31T11:38:48;7.13;;;2.50;;
46391;SDS011;32098;49.448;7.904;2022-10-31T11:41:17;9.50;;;3.20;;
46391;SDS011;32098;49.448;7.904;2022-10-31T11:43:53;6.78;;;3.40;;
46391;SDS011;32098;49.448;7.904;2022-10-31T11:52:26;5.75;;;3.25;;
46391;SDS011;32098;49.448;7.904;2022-10-31T11:55:00;7.03;;;3.38;;
46391;SDS011;32098;49.448;7.904;2022-10-31T12:00:28;10.48;;;3.83;;
46391;SDS011;32098;49.448;7.904;2022-10-31T12:03:14;7.43;;;3.22;;
46391;SDS011;32098;49.448;7.904;2022-10-31T12:06:03;7.65;;;3.38;;
46391;SDS011;32098;49.448;7.904;2022-10-31T12:08:35;6.72;;;3.25;;
46391;SDS011;32098;49.448;7.904;2022-10-31T12:11:08;8.02;;;3.58;;
46391;SDS011;32098;49.448;7.904;2022-10-31T12:13:55;10.98;;;3.40;;
46391;SDS011;32098;49.448;7.904;2022-10-31T12:16:33;8.40;;;3.35;;
46391;SDS011;32098;49.448;7.904;2022-10-31T12:30:39;7.30;;;3.97;;
46391;SDS011;32098;49.448;7.904;2022-10-31T12:36:08;8.93;;;3.85;;
46391;SDS011;32098;49.448;7.904;2022-10-31T12:38:50;9.80;;;3.20;;
46391;SDS011;32098;49.448;7.904;2022-10-31T12:47:11;6.30;;;3.38;;
46391;SDS011;32098;49.448;7.904;2022-10-31T12:50:05;8.05;;;3.30;;
46391;SDS011;32098;49.448;7.904;2022-10-31T12:56:07;9.20;;;3.22;;
46391;SDS011;32098;49.448;7.904;2022-10-31T12:58:26;6.10;;;3.13;;
46391;SDS011;32098;49.448;7.904;2022-10-31T13:01:16;6.00;;;3.38;;
46391;SDS011;32098;49.448;7.904;2022-10-31T13:03:57;7.03;;;3.10;;
46391;SDS011;32098;49.448;7.904;2022-10-31T13:06:30;6.28;;;3.13;;
46391;SDS011;32098;49.448;7.904;2022-10-31T13:09:11;7.50;;;4.07;;
46391;SDS011;32098;49.448;7.904;2022-10-31T13:11:45;7.47;;;3.90;;
46391;SDS011;32098;49.448;7.904;2022-10-31T13:17:33;7.95;;;4.05;;
46391;SDS011;32098;49.448;7.904;2022-10-31T13:20:19;6.03;;;3.50;;
46391;SDS011;32098;49.448;7.904;2022-10-31T13:22:51;7.65;;;3.88;;
46391;SDS011;32098;49.448;7.904;2022-10-31T13:25:25;8.70;;;3.72;;
46391;SDS011;32098;49.448;7.904;2022-10-31T13:28:01;6.28;;;3.22;;
46391;SDS011;32098;49.448;7.904;2022-10-31T13:30:32;11.00;;;3.70;;
46391;SDS011;32098;49.448;7.904;2022-10-31T13:38:48;10.73;;;4.22;;
46391;SDS011;32098;49.448;7.904;2022-10-31T13:44:24;7.63;;;3.00;;
46391;SDS011;32098;49.448;7.904;2022-10-31T13:46:53;5.68;;;3.08;;
46391;SDS011;32098;49.448;7.904;2022-10-31T13:54:37;5.38;;;3.15;;
46391;SDS011;32098;49.448;7.904;2022-10-31T14:00:00;6.20;;;3.10;;
46391;SDS011;32098;49.448;7.904;2022-10-31T14:02:37;7.40;;;3.30;;
46391;SDS011;32098;49.448;7.904;2022-10-31T14:05:27;8.13;;;3.53;;
46391;SDS011;32098;49.448;7.904;2022-10-31T14:07:58;7.55;;;3.22;;
46391;SDS011;32098;49.448;7.904;2022-10-31T14:10:32;8.77;;;3.35;;
46391;SDS011;32098;49.448;7.904;2022-10-31T14:13:14;4.70;;;3.20;;
46391;SDS011;32098;49.448;7.904;2022-10-31T14:15:54;6.20;;;3.60;;
46391;SDS011;32098;49.448;7.904;2022-10-31T14:23:51;8.35;;;3.80;;
46391;SDS011;32098;49.448;7.904;2022-10-31T14:28:57;7.70;;;3.22;;
46391;SDS011;32098;49.448;7.904;2022-10-31T14:44:52;8.32;;;3.65;;
46391;SDS011;32098;49.448;7.904;2022-10-31T14:50:56;6.65;;;3.40;;
46391;SDS011;32098;49.448;7.904;2022-10-31T14:55:55;10.65;;;3.92;;
46391;SDS011;32098;49.448;7.904;2022-10-31T14:58:39;8.18;;;3.38;;
46391;SDS011;32098;49.448;7.904;2022-10-31T15:03:51;10.70;;;3.80;;
46391;SDS011;32098;49.448;7.904;2022-10-31T15:06:40;8.10;;;3.45;;
46391;SDS011;32098;49.448;7.904;2022-10-31T15:11:51;8.82;;;3.65;;
46391;SDS011;32098;49.448;7.904;2022-10-31T15:14:22;8.65;;;3.83;;
46391;SDS011;32098;49.448;7.904;2022-10-31T15:16:49;6.35;;;3.38;;
46391;SDS011;32098;49.448;7.904;2022-10-31T15:19:20;6.63;;;3.22;;
46391;SDS011;32098;49.448;7.904;2022-10-31T15:21:49;9.40;;;3.95;;
46391;SDS011;32098;49.448;7.904;2022-10-31T15:24:18;7.85;;;3.20;;
46391;SDS011;32098;49.448;7.904;2022-10-31T15:26:46;5.97;;;3.40;;
46391;SDS011;32098;49.448;7.904;2022-10-31T15:29:15;6.65;;;3.03;;
46391;SDS011;32098;49.448;7.904;2022-10-31T15:31:54;11.63;;;3.28;;
46391;SDS011;32098;49.448;7.904;2022-10-31T15:34:26;6.10;;;3.20;;
46391;SDS011;32098;49.448;7.904;2022-10-31T15:37:04;8.30;;;3.10;;
46391;SDS011;32098;49.448;7.904;2022-10-31T15:39:35;6.18;;;3.55;;
46391;SDS011;32098;49.448;7.904;2022-10-31T15:42:02;6.40;;;3.40;;
46391;SDS011;32098;49.448;7.904;2022-10-31T15:44:36;7.30;;;3.60;;
46391;SDS011;32098;49.448;7.904;2022-10-31T15:47:13;6.78;;;3.58;;
46391;SDS011;32098;49.448;7.904;2022-10-31T15:49:47;6.63;;;3.75;;
46391;SDS011;32098;49.448;7.904;2022-10-31T15:52:18;6.70;;;3.63;;
46391;SDS011;32098;49.448;7.904;2022-10-31T15:54:54;5.55;;;3.72;;
46391;SDS011;32098;49.448;7.904;2022-10-31T15:57:24;6.80;;;3.40;;
46391;SDS011;32098;49.448;7.904;2022-10-31T15:59:52;6.20;;;3.35;;
46391;SDS011;32098;49.448;7.904;2022-10-31T16:02:21;9.32;;;3.42;;
46391;SDS011;32098;49.448;7.904;2022-10-31T16:07:24;7.05;;;3.65;;
46391;SDS011;32098;49.448;7.904;2022-10-31T16:10:01;6.47;;;3.90;;
46391;SDS011;32098;49.448;7.904;2022-10-31T16:12:42;5.72;;;3.45;;
46391;SDS011;32098;49.448;7.904;2022-10-31T16:15:13;9.07;;;3.88;;
46391;SDS011;32098;49.448;7.904;2022-10-31T16:17:42;6.88;;;3.85;;
46391;SDS011;32098;49.448;7.904;2022-10-31T16:20:17;7.68;;;4.00;;
46391;SDS011;32098;49.448;7.904;2022-10-31T16:22:48;9.07;;;4.28;;
46391;SDS011;32098;49.448;7.904;2022-10-31T16:25:17;8.38;;;3.60;;
46391;SDS011;32098;49.448;7.904;2022-10-31T16:27:52;6.72;;;3.53;;
46391;SDS011;32098;49.448;7.904;2022-10-31T16:32:56;10.60;;;4.15;;
46391;SDS011;32098;49.448;7.904;2022-10-31T16:35:35;8.63;;;4.55;;
46391;SDS011;32098;49.448;7.904;2022-10-31T16:38:04;9.43;;;4.65;;
46391;SDS011;32098;49.448;7.904;2022-10-31T16:40:31;5.85;;;4.45;;
46391;SDS011;32098;49.448;7.904;2022-10-31T16:42:59;10.73;;;4.93;;
46391;SDS011;32098;49.448;7.904;2022-10-31T16:45:27;7.78;;;4.35;;
46391;SDS011;32098;49.448;7.904;2022-10-31T16:48:06;7.18;;;3.90;;
46391;SDS011;32098;49.448;7.904;2022-10-31T16:50:37;7.63;;;4.22;;
46391;SDS011;32098;49.448;7.904;2022-10-31T16:53:04;9.35;;;4.45;;
46391;SDS011;32098;49.448;7.904;2022-10-31T16:58:16;8.63;;;5.55;;
46391;SDS011;32098;49.448;7.904;2022-10-31T17:00:46;9.25;;;5.70;;
46391;SDS011;32098;49.448;7.904;2022-10-31T17:03:13;11.43;;;5.30;;
46391;SDS011;32098;49.448;7.904;2022-10-31T17:05:40;7.53;;;4.80;;
46391;SDS011;32098;49.448;7.904;2022-10-31T17:08:06;11.27;;;5.50;;
46391;SDS011;32098;49.448;7.904;2022-10-31T17:10:33;9.32;;;5.20;;
46391;SDS011;32098;49.448;7.904;2022-10-31T17:13:00;10.20;;;5.57;;
46391;SDS011;32098;49.448;7.904;2022-10-31T17:15:31;11.32;;;5.65;;
46391;SDS011;32098;49.448;7.904;2022-10-31T17:18:04;10.98;;;5.43;;
46391;SDS011;32098;49.448;7.904;2022-10-31T17:20:30;8.00;;;5.28;;
46391;SDS011;32098;49.448;7.904;2022-10-31T17:22:57;9.05;;;5.18;;
46391;SDS011;32098;49.448;7.904;2022-10-31T17:25:26;9.60;;;5.30;;
46391;SDS011;32098;49.448;7.904;2022-10-31T17:27:57;7.15;;;4.85;;
46391;SDS011;32098;49.448;7.904;2022-10-31T17:30:24;11.85;;;5.88;;
46391;SDS011;32098;49.448;7.904;2022-10-31T17:32:51;10.05;;;5.15;;
46391;SDS011;32098;49.448;7.904;2022-10-31T17:35:18;8.70;;;5.20;;
46391;SDS011;32098;49.448;7.904;2022-10-31T17:37:45;7.45;;;5.30;;
46391;SDS011;32098;49.448;7.904;2022-10-31T17:40:13;10.20;;;6.25;;
46391;SDS011;32098;49.448;7.904;2022-10-31T17:42:42;15.10;;;8.77;;
46391;SDS011;32098;49.448;7.904;2022-10-31T17:45:14;14.32;;;8.98;;
46391;SDS011;32098;49.448;7.904;2022-10-31T17:47:41;14.85;;;9.50;;
46391;SDS011;32098;49.448;7.904;2022-10-31T17:50:07;12.98;;;8.52;;
46391;SDS011;32098;49.448;7.904;2022-10-31T17:52:34;12.88;;;8.50;;
46391;SDS011;32098;49.448;7.904;2022-10-31T17:55:01;11.75;;;8.48;;